Nassau (NAS/MYNN)

Information

Location
Nassau, Bahamas
Local Time
01:44 / 1:44 am
GMT Time
05:44 / 5:44 am
Gates
15
No FAA reported delays
METAR MYNN 190500Z 05003KT 9999 FEW020 SCT080 28/25 A3001
TAF MYNN 182300Z 1900/1924 06006KT 8000 SHRA SCT016CB BKN080 BECMG 1914/1916 9999 FEW017CB BKN100